AirNav   Pilot Hours Calculator
 
 1070 users online  

55CL Strain Ranch Airport
Arbuckle, California, USA

GOING TO ARBUCKLE?


FAA INFORMATION EFFECTIVE 08 OCTOBER 2020

Location

FAA Identifier: 55CL
Lat/Long: 39-03-11.0000N 122-05-44.0000W
39-03.183333N 122-05.733333W
39.0530556,-122.0955556
(estimated)
Elevation: 123 ft. / 37 m (estimated)
From city: 2 miles NNW of ARBUCKLE, CA
Time zone: UTC -7 (UTC -8 during Standard Time)
Zip code: 95912

Airport Operations

Airport use: Private use. Permission required prior to landing
Activation date: 04/2016
Control tower: no
ARTCC: OAKLAND CENTER
FSS: RANCHO MURIETA FLIGHT SERVICE STATION
Attendance: MON-FRI 0700-1900
Wind indicator: yes
Segmented circle: no

Nearby radio navigation aids

VOR radial/distance  VOR name  Freq  Var
ILAr233/3.4WILLIAMS VORTAC114.4018E
MYVr248/24.5MARYSVILLE VOR/DME110.8016E
MCCr289/39.7MC CLELLAN VOR/DME109.2017E

Airport Services

Runway Information

Runway 17/35

Dimensions: 3000 x 40 ft. / 914 x 12 m
Surface: asphalt
RUNWAY 17  RUNWAY 35
Traffic pattern: leftleft

Airport Ownership and Management from official FAA records

Ownership: Privately-owned
Owner: STRAIN WESTSIDE LAND
P.O. BOX 807
ARBUCKLE, CA 95912
Phone 530-476-3286
Manager: DERICK STRAIN
P.O. BOX 807
ARBUCKLE, CA 95912
Phone 530-476-3286

Airport Operational Statistics

Aircraft based on the field: 1
Single engine airplanes: 1
    

Additional Remarks

FOR CD CTC OAKLAND ARTCC AT 510-745-3380.

Instrument Procedures

There are no published instrument procedures at 55CL.

Some nearby airports with instrument procedures:

O08 - Colusa County Airport (9 nm NE)
KMYV - Yuba County Airport (25 nm E)
O41 - Watts-Woodland Airport (25 nm SE)
KWLW - Willows-Glenn County Airport (28 nm N)
KDWA - Yolo County Airport (31 nm S)
 
Loc | Ops | Rwys | IFR | FBO | Links
Com | Nav | Svcs | Stats | Notes
Aerial photo
No photo
 
Airport distance calculator
Flying to Strain Ranch Airport? Find the distance to fly.

From to 55CL

Sunrise and sunset
Times for 30-Oct-2020
 Local
(UTC-7)
 Zulu
(UTC)
Morning civil twilight07:0814:08
Sunrise07:3614:36
Sunset18:0801:08
Evening civil twilight18:3601:36

Current date and time
Zulu (UTC)  30-Oct-2020 22:29:20
Local (UTC-7)  30-Oct-2020 15:29:20
 
METAR
KMYV 
25nm E 
302153Z AUTO 32004KT 10SM CLR 26/02 A3001 RMK AO2 SLP165 T02560017
KDWA 
31nm S 
302215Z AUTO 00000KT 10SM CLR 25/01 A3002 RMK AO2
KBAB 
31nm E 
302158Z 35003KT 8SM CLR 25/02 A2999 RMK AO2A SLP158 T02500018 $
KSMF 
31nm SE 
302153Z 29003KT 10SM CLR 25/03 A3001 RMK AO2 SLP161 T02500028
KEDU 
34nm SE 
302220Z AUTO 00000KT 9SM CLR 25/00 A3001 RMK AO1
KOVE 
35nm NE 
302153Z AUTO 21005KT 10SM CLR 25/02 A3002 RMK AO2 SLP166 T02500022
KLHM 
36nm E 
302215Z AUTO 34004KT 10SM CLR 25/00 A3000 RMK AO1
KMCC 
40nm SE 
302215Z AUTO 30005KT 10SM CLR 25/01 A3000 RMK AO2
KVCB 
41nm S 
302153Z AUTO VRB03KT 7SM CLR 26/02 A3001 RMK AO2 SLP163 T02610022
KSAC 
43nm SE 
302153Z 00000KT 10SM CLR 26/01 A3001 RMK AO2 SLP161 T02560011
TAF
KBAB 
31nm E 
301900Z 3019/0101 24006KT 9999 SKC QNH3001INS BECMG 3102/3103 VRB05KT 9999 SKC QNH3002INS BECMG 3117/3118 32005KT 9999 SKC QNH3001INS TX25/3023Z TN07/3113Z
KSMF 
31nm SE 
301120Z 3012/3112 VRB03KT P6SM SKC FM310600 15005KT P6SM SKC
NOTAMs
Click for the latest NOTAMs
NOTAMs are issued by the DoD/FAA and will open in a separate window not controlled by AirNav.

 

 
 

Would you like to see your business listed on this page?

 If your business provides an interesting product or service to pilots, flight crews, aircraft, or users of the Strain Ranch Airport, you should consider listing it here.  To start the listing process, click on the button below
 
Add a business
 

Other Pages about Strain Ranch Airport

Update a link
 
Copyright © AirNav, LLC. All rights reserved. Privacy Policy  Contact